Terminal Aerodrome Forecast
Issued by NWS El Paso, TX

Home | Current Version | Previous Version | Text Only | Print | Product List | Glossary On
Versions: 1 2 3 4 5 6 7 8 9 10 11 12 13
542
FTUS44 KEPZ 310523
TAFELP
TAF
KELP 310523Z 3106/0106 22007KT P6SM VCSH SCT070 SCT120
      TEMPO 3106/3110 -SHRA BKN070 BKN120
     FM311200 14005KT P6SM SCT070 SCT120
     FM311900 23012G22KT P6SM FEW080 FEW130
     FM010300 26010KT P6SM FEW130=

USA.gov is the U.S. government's official web portal to all federal, state and local government web resources and services.